Time;durP1;ratioP1;P1;durP2;ratioP2;P2;SDS_P1;SDS_P2;PMS_P1;PMS_P2;Temp;Humidity;BMP_temperature;BMP_pressure;BME280_temperature;BME280_humidity;BME280_pressure;Samples;Min_cycle;Max_cycle;Signal;HPM_P1;HPM_P2
2022/10/26 00:02:05;;;;;;;;;;;17.50;99.90;;;;;;5074168;28;20023;-23
2022/10/26 00:04:30;;;;;;;;;;;17.50;99.90;;;;;;5073872;28;19977;-23
2022/10/26 00:06:56;;;;;;;;;;;17.50;99.90;;;;;;5074134;28;19912;-23
2022/10/26 00:09:21;;;;;;;;;;;17.50;99.90;;;;;;5074642;28;20289;-23
2022/10/26 00:11:47;;;;;;;;;;;17.50;99.90;;;;;;5073867;28;19919;-23
2022/10/26 00:14:12;;;;;;;;;;;17.50;99.90;;;;;;5073532;28;20285;-23
2022/10/26 00:16:38;;;;;;;;;;;17.50;99.90;;;;;;5073786;28;19912;-23
2022/10/26 00:19:03;;;;;;;;;;;17.50;99.90;;;;;;5074092;28;19948;-23
2022/10/26 00:21:29;;;;;;;;;;;17.50;99.90;;;;;;5073714;28;20007;-23
2022/10/26 00:23:54;;;;;;;;;;;17.50;99.90;;;;;;5073275;28;20332;-23
2022/10/26 00:26:20;;;;;;;;;;;17.50;99.90;;;;;;5074774;28;19962;-23
2022/10/26 00:28:46;;;;;;;;;;;17.50;99.90;;;;;;5074416;28;19971;-23
2022/10/26 00:31:12;;;;;;;;;;;17.50;99.90;;;;;;5073796;28;20274;-23
2022/10/26 00:33:38;;;;;;;;;;;17.50;99.90;;;;;;5073368;28;20329;-23
2022/10/26 00:36:03;;;;;;;;;;;17.40;99.90;;;;;;5072355;28;20369;-23
2022/10/26 00:38:29;;;;;;;;;;;17.50;99.90;;;;;;5073413;28;19916;-23
2022/10/26 00:40:55;;;;;;;;;;;17.50;99.90;;;;;;5073222;28;19927;-23
2022/10/26 00:43:20;;;;;;;;;;;17.50;99.90;;;;;;5071864;28;19915;-23
2022/10/26 00:45:46;;;;;;;;;;;17.50;99.90;;;;;;5073616;28;20331;-23
2022/10/26 00:48:20;;;;;;;;;;;17.50;99.90;;;;;;5073214;28;19995;-23
2022/10/26 00:50:46;;;;;;;;;;;17.50;99.90;;;;;;5071821;28;19908;-23
2022/10/26 00:53:12;;;;;;;;;;;17.50;99.90;;;;;;5072392;28;20289;-23
2022/10/26 00:55:40;;;;;;;;;;;17.50;99.90;;;;;;5073112;28;19912;-23
2022/10/26 00:58:07;;;;;;;;;;;17.50;99.90;;;;;;5072841;28;19914;-23
2022/10/26 01:00:33;;;;;;;;;;;17.50;99.90;;;;;;5073041;28;20285;-23
2022/10/26 01:03:00;;;;;;;;;;;17.40;99.90;;;;;;5071189;28;19909;-23
2022/10/26 01:05:25;;;;;;;;;;;17.40;99.90;;;;;;5072836;28;19916;-23
2022/10/26 01:07:51;;;;;;;;;;;17.40;99.90;;;;;;5073281;28;19918;-23
2022/10/26 01:10:17;;;;;;;;;;;17.40;99.90;;;;;;5076443;28;20007;-23
2022/10/26 01:12:43;;;;;;;;;;;17.40;99.90;;;;;;5075989;28;20033;-23
2022/10/26 01:15:09;;;;;;;;;;;17.40;99.90;;;;;;5073459;28;20052;-23
2022/10/26 01:17:43;;;;;;;;;;;17.40;99.90;;;;;;5072899;28;20271;-23
2022/10/26 01:20:27;;;;;;;;;;;17.40;99.90;;;;;;5072794;28;19908;-23
2022/10/26 01:22:52;;;;;;;;;;;17.40;99.90;;;;;;5072271;28;19956;-23
2022/10/26 01:25:18;;;;;;;;;;;17.40;99.90;;;;;;5072501;28;19955;-23
2022/10/26 01:27:45;;;;;;;;;;;17.40;99.90;;;;;;5072408;28;20403;-23
2022/10/26 01:30:20;;;;;;;;;;;17.40;99.90;;;;;;5072483;28;19952;-23
2022/10/26 01:32:45;;;;;;;;;;;17.40;99.90;;;;;;5104719;22;19927;-24
2022/10/26 01:35:20;;;;;;;;;;;17.40;99.90;;;;;;5113009;28;20002;-25
2022/10/26 01:37:55;;;;;;;;;;;17.40;99.90;;;;;;5112762;28;20010;-25
2022/10/26 01:40:26;;;;;;;;;;;17.40;99.90;;;;;;5113075;28;20326;-24
2022/10/26 01:42:53;;;;;;;;;;;17.40;99.90;;;;;;5112248;28;20344;-24
2022/10/26 01:45:19;;;;;;;;;;;17.40;99.90;;;;;;5112786;28;19908;-24
2022/10/26 01:47:46;;;;;;;;;;;17.40;99.90;;;;;;5112795;28;19919;-25
2022/10/26 01:50:11;;;;;;;;;;;17.40;99.90;;;;;;5112758;28;19915;-24
2022/10/26 01:52:37;;;;;;;;;;;17.40;99.90;;;;;;5112126;28;20300;-24
2022/10/26 01:55:04;;;;;;;;;;;17.40;99.90;;;;;;5112488;28;19968;-24
2022/10/26 01:57:31;;;;;;;;;;;17.40;99.90;;;;;;5112565;28;19912;-24
2022/10/26 02:00:04;;;;;;;;;;;17.30;99.90;;;;;;5112409;28;20044;-24
2022/10/26 02:02:29;;;;;;;;;;;17.30;99.90;;;;;;5111969;27;20368;-24
2022/10/26 02:05:09;;;;;;;;;;;17.40;99.90;;;;;;5112433;28;19908;-24
2022/10/26 02:07:54;;;;;;;;;;;17.40;99.90;;;;;;5112218;28;19915;-25
2022/10/26 02:10:34;;;;;;;;;;;17.40;99.90;;;;;;5112542;28;20300;-25
2022/10/26 02:13:12;;;;;;;;;;;17.40;99.90;;;;;;5111706;28;20377;-25
2022/10/26 02:15:48;;;;;;;;;;;17.40;99.90;;;;;;5112272;28;19978;-24
2022/10/26 02:18:13;;;;;;;;;;;17.40;99.90;;;;;;5112396;28;20011;-24
2022/10/26 02:20:42;;;;;;;;;;;17.40;99.90;;;;;;5112132;28;19995;-24
2022/10/26 02:23:09;;;;;;;;;;;17.30;99.90;;;;;;5111770;28;19931;-24
2022/10/26 02:25:38;;;;;;;;;;;17.30;99.90;;;;;;5112038;28;20382;-25
2022/10/26 02:28:09;;;;;;;;;;;17.30;99.90;;;;;;5111812;28;19915;-25
2022/10/26 02:30:37;;;;;;;;;;;17.30;99.90;;;;;;5111899;28;19978;-24
2022/10/26 02:33:04;;;;;;;;;;;17.30;99.90;;;;;;5111351;28;19916;-25
2022/10/26 02:35:31;;;;;;;;;;;17.30;99.90;;;;;;5111910;28;19953;-24
2022/10/26 02:37:58;;;;;;;;;;;17.30;99.90;;;;;;5111708;28;20361;-25
2022/10/26 02:40:24;;;;;;;;;;;17.30;99.90;;;;;;5111874;28;20357;-25
2022/10/26 02:42:51;;;;;;;;;;;17.30;99.90;;;;;;5111267;28;19919;-24
2022/10/26 02:45:19;;;;;;;;;;;17.30;99.90;;;;;;5111639;28;19908;-24
2022/10/26 02:47:45;;;;;;;;;;;17.30;99.90;;;;;;5111895;28;19912;-24
2022/10/26 02:50:11;;;;;;;;;;;17.30;99.90;;;;;;5112062;28;19945;-26
2022/10/26 02:52:42;;;;;;;;;;;17.30;99.90;;;;;;5111493;28;20013;-24
2022/10/26 02:55:11;;;;;;;;;;;17.30;99.90;;;;;;5112102;28;19911;-25
2022/10/26 02:57:40;;;;;;;;;;;17.30;99.90;;;;;;5111406;28;19916;-24
2022/10/26 03:00:10;;;;;;;;;;;17.20;99.90;;;;;;5111887;28;19912;-25
2022/10/26 03:02:35;;;;;;;;;;;17.30;99.90;;;;;;5111087;28;19915;-24
2022/10/26 03:05:09;;;;;;;;;;;17.30;99.90;;;;;;5111948;28;19912;-24
2022/10/26 03:07:35;;;;;;;;;;;17.30;99.90;;;;;;5114467;28;19908;-25
2022/10/26 03:10:00;;;;;;;;;;;17.30;99.90;;;;;;5115802;28;19961;-25
2022/10/26 03:12:26;;;;;;;;;;;17.20;99.90;;;;;;5115197;28;19908;-25
2022/10/26 03:14:51;;;;;;;;;;;17.30;99.90;;;;;;5115982;28;19916;-25
2022/10/26 03:17:17;;;;;;;;;;;17.30;99.90;;;;;;5115723;28;20384;-24
2022/10/26 03:19:42;;;;;;;;;;;17.30;99.90;;;;;;5115776;28;19923;-25
2022/10/26 03:22:08;;;;;;;;;;;17.30;99.90;;;;;;5115417;28;20330;-24
2022/10/26 03:24:33;;;;;;;;;;;17.30;99.90;;;;;;5115139;28;19926;-24
2022/10/26 03:26:59;;;;;;;;;;;17.30;99.90;;;;;;5115385;28;19914;-25
2022/10/26 03:29:24;;;;;;;;;;;17.20;99.90;;;;;;5115576;28;19915;-24
2022/10/26 03:31:53;;;;;;;;;;;17.20;99.90;;;;;;5115383;28;19915;-25
2022/10/26 03:34:18;;;;;;;;;;;17.20;99.90;;;;;;5114782;28;20338;-25
2022/10/26 03:36:44;;;;;;;;;;;17.20;99.90;;;;;;5115658;28;19912;-24
2022/10/26 03:39:09;;;;;;;;;;;17.20;99.90;;;;;;5115153;28;19908;-24
2022/10/26 03:41:35;;;;;;;;;;;17.20;99.90;;;;;;5115092;28;19947;-25
2022/10/26 03:44:00;;;;;;;;;;;17.20;99.90;;;;;;5114607;28;19908;-24
2022/10/26 03:46:26;;;;;;;;;;;17.20;99.90;;;;;;5114930;28;19908;-24
2022/10/26 03:48:51;;;;;;;;;;;17.20;99.90;;;;;;5114990;27;19908;-25
2022/10/26 03:51:17;;;;;;;;;;;17.20;99.90;;;;;;5115362;28;19933;-24
2022/10/26 03:53:42;;;;;;;;;;;17.20;99.90;;;;;;5114486;28;19912;-25
2022/10/26 03:56:08;;;;;;;;;;;17.20;99.90;;;;;;5114693;28;19907;-24
2022/10/26 03:58:33;;;;;;;;;;;17.20;99.90;;;;;;5115061;28;20006;-24
2022/10/26 04:00:59;;;;;;;;;;;17.20;99.90;;;;;;5114935;28;20282;-25
2022/10/26 04:03:24;;;;;;;;;;;17.20;99.90;;;;;;5114285;28;19916;-24
2022/10/26 04:05:50;;;;;;;;;;;17.20;99.90;;;;;;5114836;28;19912;-24
2022/10/26 04:08:15;;;;;;;;;;;17.20;99.90;;;;;;5114764;28;19908;-24
2022/10/26 04:10:41;;;;;;;;;;;17.20;99.90;;;;;;5114597;28;20345;-24
2022/10/26 04:13:07;;;;;;;;;;;17.20;99.90;;;;;;5114262;28;20436;-25
2022/10/26 04:15:33;;;;;;;;;;;17.20;99.90;;;;;;5114630;28;19998;-25
2022/10/26 04:17:59;;;;;;;;;;;17.20;99.90;;;;;;5113148;27;19999;-24
2022/10/26 04:20:25;;;;;;;;;;;17.20;99.90;;;;;;5114403;28;19915;-25
2022/10/26 04:22:58;;;;;;;;;;;17.20;99.90;;;;;;5113875;28;19911;-25
2022/10/26 04:25:23;;;;;;;;;;;17.20;99.90;;;;;;5114277;28;19947;-24
2022/10/26 04:27:49;;;;;;;;;;;17.20;99.90;;;;;;5114403;28;19955;-24
2022/10/26 04:30:14;;;;;;;;;;;17.20;99.90;;;;;;5114293;28;19937;-25
2022/10/26 04:32:40;;;;;;;;;;;17.20;99.90;;;;;;5113726;28;19915;-25
2022/10/26 04:35:05;;;;;;;;;;;17.20;99.90;;;;;;5114066;28;19912;-24
2022/10/26 04:37:32;;;;;;;;;;;17.10;99.90;;;;;;5114034;28;19922;-24
2022/10/26 04:39:57;;;;;;;;;;;17.20;99.90;;;;;;5113922;28;19943;-24
2022/10/26 04:42:22;;;;;;;;;;;17.20;99.90;;;;;;5113694;28;20001;-24
2022/10/26 04:44:48;;;;;;;;;;;17.10;99.90;;;;;;5113880;28;20474;-25
2022/10/26 04:47:13;;;;;;;;;;;17.10;99.90;;;;;;5113871;27;19908;-24
2022/10/26 04:49:39;;;;;;;;;;;17.10;99.90;;;;;;5114104;28;19914;-25
2022/10/26 04:52:05;;;;;;;;;;;17.10;99.90;;;;;;5114152;28;19915;-24
2022/10/26 04:54:30;;;;;;;;;;;17.10;99.90;;;;;;5113171;28;20327;-25
2022/10/26 04:56:56;;;;;;;;;;;17.10;99.90;;;;;;5113580;28;19957;-24
2022/10/26 04:59:21;;;;;;;;;;;17.10;99.90;;;;;;5113732;28;19912;-24
2022/10/26 05:01:47;;;;;;;;;;;17.10;99.90;;;;;;5113550;28;19943;-25
2022/10/26 05:04:12;;;;;;;;;;;17.10;99.90;;;;;;5112992;28;19912;-25
2022/10/26 05:06:38;;;;;;;;;;;17.10;99.90;;;;;;5113535;28;19912;-24
2022/10/26 05:09:03;;;;;;;;;;;17.10;99.90;;;;;;5113264;28;19912;-24
2022/10/26 05:11:29;;;;;;;;;;;17.10;99.90;;;;;;5113389;28;20276;-24
2022/10/26 05:13:54;;;;;;;;;;;17.10;99.90;;;;;;5113128;28;19907;-25
2022/10/26 05:16:20;;;;;;;;;;;17.10;99.90;;;;;;5113294;28;19919;-24
2022/10/26 05:18:48;;;;;;;;;;;17.10;99.90;;;;;;5113187;28;19957;-25
2022/10/26 05:21:18;;;;;;;;;;;17.10;99.90;;;;;;5113270;28;19916;-24
2022/10/26 05:23:49;;;;;;;;;;;17.10;99.90;;;;;;5113049;28;19915;-25
2022/10/26 05:26:15;;;;;;;;;;;17.10;99.90;;;;;;5113192;28;19908;-24
2022/10/26 05:28:41;;;;;;;;;;;17.10;99.90;;;;;;5112987;28;19908;-25
2022/10/26 05:31:06;;;;;;;;;;;17.10;99.90;;;;;;5112742;28;19908;-24
2022/10/26 05:33:32;;;;;;;;;;;17.10;99.90;;;;;;5112523;28;19916;-25
2022/10/26 05:35:57;;;;;;;;;;;17.10;99.90;;;;;;5112831;28;19918;-25
2022/10/26 05:38:23;;;;;;;;;;;17.10;99.90;;;;;;5112676;28;20501;-24
2022/10/26 05:40:49;;;;;;;;;;;17.10;99.90;;;;;;5113208;28;19912;-25
2022/10/26 05:43:15;;;;;;;;;;;17.10;99.90;;;;;;5112224;28;19911;-24
2022/10/26 05:45:41;;;;;;;;;;;17.10;99.90;;;;;;5112827;28;19908;-24
2022/10/26 05:48:06;;;;;;;;;;;17.00;99.90;;;;;;5112598;28;20362;-25
2022/10/26 05:50:32;;;;;;;;;;;17.10;99.90;;;;;;5112620;28;19908;-24
2022/10/26 05:52:57;;;;;;;;;;;17.10;99.90;;;;;;5111978;28;19957;-25
2022/10/26 05:55:23;;;;;;;;;;;17.10;99.90;;;;;;5112563;28;19916;-24
2022/10/26 05:57:49;;;;;;;;;;;17.00;99.90;;;;;;5112338;28;19912;-24
2022/10/26 06:00:17;;;;;;;;;;;17.10;99.90;;;;;;5112446;28;19915;-24
2022/10/26 06:02:50;;;;;;;;;;;17.10;99.90;;;;;;5111955;28;19943;-24
2022/10/26 06:05:21;;;;;;;;;;;17.10;99.90;;;;;;5112314;28;19908;-24
2022/10/26 06:07:47;;;;;;;;;;;17.10;99.90;;;;;;5112236;28;19908;-24
2022/10/26 06:10:13;;;;;;;;;;;17.10;99.90;;;;;;5112392;28;19908;-25
2022/10/26 06:12:38;;;;;;;;;;;17.10;99.90;;;;;;5111992;28;19907;-25
2022/10/26 06:15:04;;;;;;;;;;;17.10;99.90;;;;;;5112075;28;19912;-24
2022/10/26 06:17:35;;;;;;;;;;;17.10;99.90;;;;;;5112529;28;19916;-25
2022/10/26 06:20:21;;;;;;;;;;;17.10;99.90;;;;;;5112034;28;20381;-25
2022/10/26 06:23:01;;;;;;;;;;;17.10;99.90;;;;;;5111565;27;19911;-24
2022/10/26 06:25:32;;;;;;;;;;;17.10;99.90;;;;;;5112022;28;19915;-25
2022/10/26 06:28:16;;;;;;;;;;;17.10;99.90;;;;;;5110543;28;19945;-24
2022/10/26 06:30:42;;;;;;;;;;;17.10;99.90;;;;;;5111812;28;20007;-24
2022/10/26 06:33:11;;;;;;;;;;;17.10;99.90;;;;;;5111205;28;19945;-24
2022/10/26 06:35:40;;;;;;;;;;;17.10;99.90;;;;;;5110498;28;19908;-24
2022/10/26 06:38:17;;;;;;;;;;;17.00;99.90;;;;;;5111615;28;20384;-24
2022/10/26 06:40:44;;;;;;;;;;;17.00;99.90;;;;;;5111177;28;19908;-24
2022/10/26 06:43:26;;;;;;;;;;;17.10;99.90;;;;;;5111076;28;19907;-24
2022/10/26 06:45:55;;;;;;;;;;;17.00;99.90;;;;;;5111851;28;19907;-24
2022/10/26 06:48:24;;;;;;;;;;;17.10;99.90;;;;;;5111679;28;19912;-24
2022/10/26 06:50:52;;;;;;;;;;;17.00;99.90;;;;;;5111765;28;20410;-24
2022/10/26 06:53:36;;;;;;;;;;;17.10;99.90;;;;;;5111417;28;19940;-25
2022/10/26 06:56:02;;;;;;;;;;;17.00;99.90;;;;;;5111710;28;20287;-24
2022/10/26 06:58:29;;;;;;;;;;;17.00;99.90;;;;;;5111553;28;20428;-25
2022/10/26 07:00:55;;;;;;;;;;;17.00;99.90;;;;;;5111591;28;19915;-24
2022/10/26 07:03:21;;;;;;;;;;;17.00;99.90;;;;;;5111008;28;19908;-25
2022/10/26 07:05:47;;;;;;;;;;;17.00;99.90;;;;;;5111858;28;19908;-26
2022/10/26 07:08:12;;;;;;;;;;;17.00;99.90;;;;;;5111457;28;19993;-24
2022/10/26 07:10:38;;;;;;;;;;;17.00;99.90;;;;;;5110128;28;20356;-25
2022/10/26 07:13:05;;;;;;;;;;;17.00;99.90;;;;;;5110973;28;19912;-25
2022/10/26 07:15:31;;;;;;;;;;;17.00;99.90;;;;;;5111481;28;19912;-24
2022/10/26 07:17:56;;;;;;;;;;;17.00;99.90;;;;;;5111223;28;19922;-24
2022/10/26 07:20:22;;;;;;;;;;;17.00;99.90;;;;;;5111219;28;20376;-24
2022/10/26 07:22:54;;;;;;;;;;;17.00;99.90;;;;;;5110853;28;20527;-24
2022/10/26 07:25:20;;;;;;;;;;;17.00;99.90;;;;;;5111342;28;20000;-25
2022/10/26 07:27:45;;;;;;;;;;;17.00;99.90;;;;;;5111419;28;20372;-24
2022/10/26 07:30:11;;;;;;;;;;;17.00;99.90;;;;;;5111421;28;20048;-24
2022/10/26 07:32:37;;;;;;;;;;;17.00;99.90;;;;;;5133388;22;19922;-25
2022/10/26 07:35:02;;;;;;;;;;;16.90;99.90;;;;;;5110700;28;19916;-23
2022/10/26 07:37:28;;;;;;;;;;;16.90;99.90;;;;;;5111388;28;19957;-23
2022/10/26 07:39:53;;;;;;;;;;;16.90;99.90;;;;;;5111334;28;19908;-23
2022/10/26 07:42:19;;;;;;;;;;;16.90;99.90;;;;;;5111311;28;19952;-22
2022/10/26 07:44:45;;;;;;;;;;;16.80;99.90;;;;;;5110737;28;20344;-23
2022/10/26 07:47:10;;;;;;;;;;;16.80;99.90;;;;;;5111867;28;19912;-22
2022/10/26 07:49:35;;;;;;;;;;;16.80;99.90;;;;;;5111840;28;20006;-23
2022/10/26 07:52:01;;;;;;;;;;;16.80;99.90;;;;;;5102763;28;19909;-23
2022/10/26 07:54:27;;;;;;;;;;;16.70;99.90;;;;;;5094195;28;20369;-23
2022/10/26 07:56:52;;;;;;;;;;;16.70;99.90;;;;;;5094229;28;20019;-23
2022/10/26 07:59:18;;;;;;;;;;;16.70;99.90;;;;;;5094624;28;20380;-23
2022/10/26 08:01:43;;;;;;;;;;;16.70;99.90;;;;;;5095210;28;19908;-23
2022/10/26 08:04:09;;;;;;;;;;;16.70;99.90;;;;;;5094632;28;19953;-23
2022/10/26 08:06:34;;;;;;;;;;;16.80;99.90;;;;;;5095138;28;20002;-23
2022/10/26 08:09:00;;;;;;;;;;;16.80;99.90;;;;;;5094176;28;19970;-23
2022/10/26 08:11:26;;;;;;;;;;;16.80;99.90;;;;;;5076455;28;19950;-22
2022/10/26 08:13:52;;;;;;;;;;;16.80;99.90;;;;;;5094628;28;20003;-23
2022/10/26 08:16:18;;;;;;;;;;;16.80;99.90;;;;;;5094450;28;19915;-23
2022/10/26 08:18:46;;;;;;;;;;;16.90;99.90;;;;;;5094534;28;19911;-23
2022/10/26 08:21:12;;;;;;;;;;;16.90;99.90;;;;;;5094276;28;20292;-23
2022/10/26 08:23:37;;;;;;;;;;;16.90;99.90;;;;;;5094942;28;19908;-23
2022/10/26 08:26:03;;;;;;;;;;;16.90;99.90;;;;;;5094703;28;20257;-22
2022/10/26 08:28:29;;;;;;;;;;;16.90;99.90;;;;;;5094505;28;19934;-23
2022/10/26 08:30:55;;;;;;;;;;;16.90;99.90;;;;;;5094448;28;19909;-23
2022/10/26 08:33:22;;;;;;;;;;;16.90;99.90;;;;;;5093881;28;20006;-23
2022/10/26 08:35:47;;;;;;;;;;;16.90;99.90;;;;;;5094206;28;19944;-23
2022/10/26 08:38:13;;;;;;;;;;;16.90;99.90;;;;;;5094613;28;19966;-23
2022/10/26 08:40:40;;;;;;;;;;;16.90;99.90;;;;;;5094152;28;19939;-23
2022/10/26 08:43:33;;;;;;;;;;;16.90;99.90;;;;;;5093304;28;19931;-23
2022/10/26 08:46:04;;;;;;;;;;;16.90;99.90;;;;;;5089748;28;19908;-22
2022/10/26 08:48:36;;;;;;;;;;;16.90;99.90;;;;;;5093819;28;19948;-23
2022/10/26 08:51:05;;;;;;;;;;;16.90;99.90;;;;;;5093929;28;19918;-23
2022/10/26 08:53:36;;;;;;;;;;;16.90;99.90;;;;;;5093156;28;19916;-23
2022/10/26 08:56:02;;;;;;;;;;;16.90;99.90;;;;;;5093586;28;20007;-23
2022/10/26 08:58:30;;;;;;;;;;;16.90;99.90;;;;;;5093603;28;20016;-23
2022/10/26 09:00:57;;;;;;;;;;;16.90;99.90;;;;;;5094211;28;19912;-23
2022/10/26 09:03:23;;;;;;;;;;;16.90;99.90;;;;;;5093083;28;19908;-23
2022/10/26 09:06:07;;;;;;;;;;;17.00;99.90;;;;;;5092617;28;19923;-23
2022/10/26 09:08:41;;;;;;;;;;;17.00;99.90;;;;;;5093608;28;20392;-23
2022/10/26 09:11:10;;;;;;;;;;;17.00;99.90;;;;;;5093695;28;19908;-23
2022/10/26 09:13:35;;;;;;;;;;;17.00;99.90;;;;;;5057876;28;19908;-23
2022/10/26 09:16:07;;;;;;;;;;;17.00;99.90;;;;;;5074910;28;19922;-22
2022/10/26 09:18:46;;;;;;;;;;;17.10;99.90;;;;;;5093267;28;20001;-23
2022/10/26 09:21:19;;;;;;;;;;;17.10;99.90;;;;;;5093203;28;19912;-23
2022/10/26 09:23:59;;;;;;;;;;;17.10;99.90;;;;;;5092768;28;19966;-23
2022/10/26 09:26:25;;;;;;;;;;;17.20;99.90;;;;;;5093067;28;19912;-23
2022/10/26 09:28:50;;;;;;;;;;;17.30;99.90;;;;;;5093040;28;19930;-23
2022/10/26 09:31:17;;;;;;;;;;;17.30;99.90;;;;;;5093190;28;19908;-23
2022/10/26 09:33:42;;;;;;;;;;;17.40;99.90;;;;;;5092117;28;19916;-23
2022/10/26 09:36:28;;;;;;;;;;;17.40;99.90;;;;;;5092720;28;19919;-23
2022/10/26 09:38:56;;;;;;;;;;;17.40;99.90;;;;;;5092065;28;19947;-23
2022/10/26 09:41:31;;;;;;;;;;;17.50;99.90;;;;;;5092801;28;20379;-23
2022/10/26 09:44:03;;;;;;;;;;;17.50;99.90;;;;;;5073655;28;19908;-23
2022/10/26 09:46:52;;;;;;;;;;;17.50;99.90;;;;;;5092980;28;19918;-23
2022/10/26 09:49:19;;;;;;;;;;;17.60;99.90;;;;;;5078927;28;19915;-23
2022/10/26 09:51:45;;;;;;;;;;;17.60;99.90;;;;;;5092503;28;19965;-23
2022/10/26 09:54:15;;;;;;;;;;;17.60;99.90;;;;;;5092405;28;19909;-23
2022/10/26 09:56:41;;;;;;;;;;;17.60;99.90;;;;;;5091965;28;19916;-23
2022/10/26 09:59:09;;;;;;;;;;;17.70;99.90;;;;;;5091807;28;19930;-23
2022/10/26 10:01:35;;;;;;;;;;;17.70;99.90;;;;;;5091772;28;19912;-23
2022/10/26 10:04:07;;;;;;;;;;;17.70;99.90;;;;;;5091715;28;19940;-23
2022/10/26 10:06:32;;;;;;;;;;;17.70;99.90;;;;;;5092065;28;19918;-23
2022/10/26 10:09:14;;;;;;;;;;;17.70;99.90;;;;;;5091783;28;20007;-23
2022/10/26 10:11:53;;;;;;;;;;;17.80;99.90;;;;;;5091966;28;19920;-23
2022/10/26 10:14:19;;;;;;;;;;;17.70;99.90;;;;;;5093029;28;19947;-23
2022/10/26 10:16:49;;;;;;;;;;;17.80;99.90;;;;;;5093070;28;19916;-23
2022/10/26 10:19:23;;;;;;;;;;;17.80;99.90;;;;;;5092008;28;19947;-23
2022/10/26 10:21:50;;;;;;;;;;;17.80;99.90;;;;;;5091845;28;19908;-23
2022/10/26 10:24:29;;;;;;;;;;;17.80;99.90;;;;;;5091551;28;19919;-23
2022/10/26 10:27:04;;;;;;;;;;;17.90;99.90;;;;;;5091894;28;19908;-23
2022/10/26 10:29:32;;;;;;;;;;;17.80;99.90;;;;;;5091830;28;19912;-23
2022/10/26 10:32:01;;;;;;;;;;;17.80;99.90;;;;;;5091584;28;19908;-23
2022/10/26 10:34:30;;;;;;;;;;;17.90;99.90;;;;;;5091369;28;19955;-23
2022/10/26 10:36:56;;;;;;;;;;;17.90;99.90;;;;;;5091716;28;20746;-23
2022/10/26 10:39:40;;;;;;;;;;;17.90;99.90;;;;;;5091768;28;19916;-22
2022/10/26 10:42:13;;;;;;;;;;;17.90;99.90;;;;;;5091603;28;19999;-23
2022/10/26 10:44:38;;;;;;;;;;;18.00;99.90;;;;;;5090989;28;19962;-23
2022/10/26 10:47:05;;;;;;;;;;;18.00;99.90;;;;;;5091905;28;19955;-23
2022/10/26 10:49:31;;;;;;;;;;;18.00;99.90;;;;;;5091216;28;19994;-23
2022/10/26 10:51:57;;;;;;;;;;;18.10;99.90;;;;;;5091027;28;19912;-23
2022/10/26 10:54:33;;;;;;;;;;;18.10;99.90;;;;;;5090764;28;20327;-23
2022/10/26 10:57:07;;;;;;;;;;;18.00;99.90;;;;;;5091203;28;20002;-24
2022/10/26 10:59:36;;;;;;;;;;;18.00;99.90;;;;;;5091372;28;19994;-23
2022/10/26 11:02:02;;;;;;;;;;;18.00;99.90;;;;;;5091423;28;20073;-23
2022/10/26 11:04:38;;;;;;;;;;;17.90;99.90;;;;;;5090779;28;19915;-23
2022/10/26 11:07:05;;;;;;;;;;;17.90;99.90;;;;;;5073118;28;19912;-23
2022/10/26 11:09:32;;;;;;;;;;;17.90;99.90;;;;;;5091385;28;20376;-23
2022/10/26 11:12:27;;;;;;;;;;;17.90;99.90;;;;;;5091079;28;19908;-23
2022/10/26 11:15:13;;;;;;;;;;;17.90;99.90;;;;;;5068917;28;19908;-22
2022/10/26 11:17:44;;;;;;;;;;;17.80;99.90;;;;;;5072145;28;20404;-23
2022/10/26 11:20:16;;;;;;;;;;;17.90;99.90;;;;;;5091226;28;19965;-23
2022/10/26 11:22:44;;;;;;;;;;;17.90;99.90;;;;;;5090803;28;19927;-23
2022/10/26 11:25:09;;;;;;;;;;;17.80;99.90;;;;;;5091239;28;20364;-23
2022/10/26 11:27:41;;;;;;;;;;;17.80;99.90;;;;;;5092053;28;19912;-23
2022/10/26 11:30:13;;;;;;;;;;;17.80;99.90;;;;;;5095760;28;19908;-22
2022/10/26 11:32:44;;;;;;;;;;;17.80;99.90;;;;;;5097322;28;19912;-22
2022/10/26 11:35:13;;;;;;;;;;;17.80;99.90;;;;;;5097497;28;19916;-23
2022/10/26 11:37:43;;;;;;;;;;;17.80;99.90;;;;;;5095053;28;19981;-23
2022/10/26 11:40:21;;;;;;;;;;;17.80;99.90;;;;;;5095028;28;19909;-23
2022/10/26 11:42:50;;;;;;;;;;;17.80;99.90;;;;;;5094627;28;20053;-23
2022/10/26 11:45:31;;;;;;;;;;;17.80;99.90;;;;;;5094965;28;19912;-23
2022/10/26 11:48:11;;;;;;;;;;;17.80;99.90;;;;;;5094847;28;19909;-23
2022/10/26 11:50:44;;;;;;;;;;;17.80;99.90;;;;;;5094888;28;20308;-23
2022/10/26 11:53:10;;;;;;;;;;;17.70;99.90;;;;;;5094564;28;19908;-23
2022/10/26 11:55:36;;;;;;;;;;;17.70;99.90;;;;;;5076841;28;19991;-23
2022/10/26 11:58:02;;;;;;;;;;;17.80;99.90;;;;;;5095182;28;19912;-23
2022/10/26 12:00:28;;;;;;;;;;;17.70;99.90;;;;;;5094670;28;19915;-23
2022/10/26 12:03:01;;;;;;;;;;;17.80;99.90;;;;;;5094147;28;19908;-23
2022/10/26 12:05:40;;;;;;;;;;;17.80;99.90;;;;;;5094673;28;19908;-23
2022/10/26 12:08:11;;;;;;;;;;;17.80;99.90;;;;;;5094720;28;20002;-23
2022/10/26 12:10:38;;;;;;;;;;;17.80;99.90;;;;;;5094906;28;19951;-23
2022/10/26 12:13:10;;;;;;;;;;;17.80;99.90;;;;;;5093219;28;19977;-23
2022/10/26 12:15:39;;;;;;;;;;;17.80;99.90;;;;;;5093944;28;19912;-23
2022/10/26 12:18:07;;;;;;;;;;;17.80;99.90;;;;;;5093897;28;20349;-23
2022/10/26 12:20:51;;;;;;;;;;;17.80;99.90;;;;;;5094443;28;19912;-23
2022/10/26 12:23:17;;;;;;;;;;;17.80;99.90;;;;;;5093935;28;19955;-23
2022/10/26 12:25:42;;;;;;;;;;;17.80;99.90;;;;;;5094365;28;20336;-23
2022/10/26 12:28:37;;;;;;;;;;;17.80;99.90;;;;;;5093859;28;19915;-23
2022/10/26 12:31:21;;;;;;;;;;;17.70;99.90;;;;;;5093853;28;19933;-23
2022/10/26 12:33:49;;;;;;;;;;;17.80;99.90;;;;;;5093433;28;19923;-23
2022/10/26 12:36:34;;;;;;;;;;;17.80;99.90;;;;;;5093808;28;19954;-23
2022/10/26 12:39:00;;;;;;;;;;;17.80;99.90;;;;;;5092307;28;19915;-23
2022/10/26 12:41:26;;;;;;;;;;;17.90;99.90;;;;;;5093935;28;20010;-23
2022/10/26 12:43:55;;;;;;;;;;;18.00;99.90;;;;;;5092988;28;20443;-23
2022/10/26 12:46:21;;;;;;;;;;;18.00;99.90;;;;;;5093587;28;19915;-23
2022/10/26 12:48:47;;;;;;;;;;;18.00;99.90;;;;;;5093465;28;19908;-23
2022/10/26 12:51:20;;;;;;;;;;;18.10;99.90;;;;;;5093608;28;19987;-23
2022/10/26 12:53:52;;;;;;;;;;;18.10;99.90;;;;;;5092880;28;19912;-23
2022/10/26 12:56:18;;;;;;;;;;;18.10;99.90;;;;;;5093295;28;20320;-23
2022/10/26 12:58:44;;;;;;;;;;;18.10;99.90;;;;;;5093253;28;20528;-23
2022/10/26 13:01:09;;;;;;;;;;;18.20;99.90;;;;;;5093195;28;19986;-23
2022/10/26 13:03:50;;;;;;;;;;;18.20;99.90;;;;;;5092810;28;20285;-23
2022/10/26 13:06:27;;;;;;;;;;;18.30;99.90;;;;;;5092972;28;19919;-23
2022/10/26 13:08:54;;;;;;;;;;;18.30;99.90;;;;;;5093480;28;19992;-23
2022/10/26 13:11:24;;;;;;;;;;;18.40;99.90;;;;;;5093234;28;20448;-23
2022/10/26 13:13:54;;;;;;;;;;;18.40;99.90;;;;;;5092231;28;20420;-23
2022/10/26 13:16:19;;;;;;;;;;;18.40;99.90;;;;;;5092792;28;20388;-23
2022/10/26 13:18:48;;;;;;;;;;;18.40;99.90;;;;;;5092762;28;19996;-23
2022/10/26 13:21:15;;;;;;;;;;;18.50;99.90;;;;;;5074559;28;19908;-23
2022/10/26 13:23:45;;;;;;;;;;;18.50;99.90;;;;;;5092354;28;19995;-23
2022/10/26 13:26:13;;;;;;;;;;;18.50;99.90;;;;;;5092767;28;20017;-23
2022/10/26 13:28:39;;;;;;;;;;;18.50;99.90;;;;;;5092667;28;19947;-23
2022/10/26 13:31:22;;;;;;;;;;;18.50;99.90;;;;;;5092543;28;20353;-23
2022/10/26 13:33:49;;;;;;;;;;;18.50;99.90;;;;;;5120480;22;19924;-25
2022/10/26 13:36:15;;;;;;;;;;;18.60;99.90;;;;;;5113118;28;19908;-25
2022/10/26 13:38:40;;;;;;;;;;;18.50;99.90;;;;;;5112855;28;19922;-26
2022/10/26 13:41:12;;;;;;;;;;;18.60;99.90;;;;;;5112663;28;20292;-25
2022/10/26 13:43:38;;;;;;;;;;;18.60;99.90;;;;;;5112224;28;19915;-25
2022/10/26 13:46:04;;;;;;;;;;;18.60;99.90;;;;;;5112580;28;19907;-25
2022/10/26 13:48:37;;;;;;;;;;;18.60;99.90;;;;;;5112894;27;19912;-24
2022/10/26 13:51:19;;;;;;;;;;;18.60;99.90;;;;;;5112485;28;19908;-24
2022/10/26 13:53:49;;;;;;;;;;;18.60;99.90;;;;;;5112279;28;19908;-26
2022/10/26 13:56:14;;;;;;;;;;;18.60;99.90;;;;;;5112482;28;20389;-25
2022/10/26 13:58:51;;;;;;;;;;;18.60;99.90;;;;;;5112477;28;19961;-26
2022/10/26 14:01:20;;;;;;;;;;;18.60;99.90;;;;;;5112653;28;20369;-25
2022/10/26 14:03:47;;;;;;;;;;;18.60;99.90;;;;;;5111896;28;19907;-25
2022/10/26 14:06:22;;;;;;;;;;;18.70;99.90;;;;;;5112339;28;19912;-25
2022/10/26 14:08:49;;;;;;;;;;;18.70;99.90;;;;;;5111778;28;20389;-25
2022/10/26 14:11:16;;;;;;;;;;;18.70;99.90;;;;;;5111989;28;19907;-25
2022/10/26 14:13:42;;;;;;;;;;;18.70;99.90;;;;;;5111442;28;19994;-24
2022/10/26 14:16:08;;;;;;;;;;;18.70;99.90;;;;;;5111983;27;20046;-25
2022/10/26 14:18:35;;;;;;;;;;;18.70;99.90;;;;;;5112023;28;19969;-25
2022/10/26 14:21:00;;;;;;;;;;;18.70;99.90;;;;;;5112114;28;19916;-25
2022/10/26 14:23:36;;;;;;;;;;;18.70;99.90;;;;;;5110245;28;19908;-24
2022/10/26 14:26:03;;;;;;;;;;;18.70;99.90;;;;;;5111856;28;19915;-25